Time;durP1;ratioP1;P1;durP2;ratioP2;P2;SDS_P1;SDS_P2;PMS_P1;PMS_P2;Temp;Humidity;BMP_temperature;BMP_pressure;BME280_temperature;BME280_humidity;BME280_pressure;Samples;Min_cycle;Max_cycle;Signal;HPM_P1;HPM_P2
2021/12/29 00:00:27;;;;;;;14.50;12.60;;;;;;;3.77;100.00;95438.91;6178850;23;20480;-65
2021/12/29 00:02:54;;;;;;;15.13;13.70;;;;;;;3.74;100.00;95426.06;6178635;23;20429;-65
2021/12/29 00:05:20;;;;;;;15.05;13.63;;;;;;;3.72;100.00;95434.00;6179220;23;20017;-65
2021/12/29 00:07:46;;;;;;;14.75;13.02;;;;;;;3.76;100.00;95433.78;6179525;23;20005;-64
2021/12/29 00:10:12;;;;;;;11.75;10.65;;;;;;;3.75;100.00;95438.16;6179623;23;20429;-65
2021/12/29 00:12:45;;;;;;;13.30;12.07;;;;;;;3.76;100.00;95439.84;6179525;23;20012;-64
2021/12/29 00:15:13;;;;;;;14.52;13.07;;;;;;;3.80;100.00;95443.06;6179737;23;20005;-64
2021/12/29 00:17:40;;;;;;;13.43;12.13;;;;;;;3.81;100.00;95444.72;6179880;23;20002;-64
2021/12/29 00:20:07;;;;;;;14.25;12.85;;;;;;;3.79;100.00;95465.69;6179612;23;20008;-64
2021/12/29 00:22:33;;;;;;;14.88;13.48;;;;;;;3.76;100.00;95485.88;6179568;23;20029;-64
2021/12/29 00:24:59;;;;;;;14.70;13.30;;;;;;;3.76;100.00;95493.69;6179621;23;20005;-65
2021/12/29 00:27:24;;;;;;;15.88;14.35;;;;;;;3.88;100.00;95487.66;6179407;23;20409;-64
2021/12/29 00:29:49;;;;;;;13.07;11.88;;;;;;;3.93;100.00;95498.59;6179531;23;20040;-65
2021/12/29 00:32:15;;;;;;;11.00;10.00;;;;;;;3.92;100.00;95496.91;6179539;23;20055;-65
2021/12/29 00:34:40;;;;;;;11.20;10.30;;;;;;;3.81;100.00;95489.00;6179063;23;20008;-64
2021/12/29 00:37:06;;;;;;;10.27;9.43;;;;;;;3.72;100.00;95487.84;6179502;23;20012;-64
2021/12/29 00:39:31;;;;;;;9.18;8.38;;;;;;;3.74;100.00;95485.97;6177957;23;20001;-64
2021/12/29 00:41:57;;;;;;;8.90;8.20;;;;;;;3.77;100.00;95466.72;6178215;23;20453;-65
2021/12/29 00:44:22;;;;;;;8.70;7.95;;;;;;;3.78;100.00;95457.97;6179400;23;20032;-65
2021/12/29 00:46:52;;;;;;;8.13;7.53;;;;;;;3.76;100.00;95459.84;6179492;23;20005;-64
2021/12/29 00:49:19;;;;;;;7.57;6.97;;;;;;;3.73;100.00;95453.91;6179658;23;20109;-64
2021/12/29 00:51:45;;;;;;;5.07;4.68;;;;;;;3.69;100.00;95457.66;6179567;23;20012;-64
2021/12/29 00:54:10;;;;;;;4.60;4.30;;;;;;;3.73;100.00;95464.31;6179420;23;20084;-64
2021/12/29 00:56:37;;;;;;;4.25;4.05;;;;;;;3.70;100.00;95479.31;6179288;23;20448;-64
2021/12/29 00:59:03;;;;;;;4.57;4.28;;;;;;;3.80;100.00;95490.78;6179173;23;20005;-64
2021/12/29 01:01:29;;;;;;;5.40;5.00;;;;;;;3.92;100.00;95496.06;6179581;23;20444;-64
2021/12/29 01:03:55;;;;;;;5.72;5.32;;;;;;;3.85;100.00;95495.66;6179080;23;20082;-64
2021/12/29 01:06:20;;;;;;;6.20;5.75;;;;;;;3.77;100.00;95495.34;6179275;23;20005;-64
2021/12/29 01:08:46;;;;;;;7.15;6.60;;;;;;;3.89;100.00;95511.91;6179377;23;20481;-64
2021/12/29 01:11:12;;;;;;;7.78;7.07;;;;;;;3.69;100.00;95509.75;6179426;23;20421;-64
2021/12/29 01:13:45;;;;;;;9.32;8.52;;;;;;;3.60;100.00;95507.75;6179385;23;20012;-64
2021/12/29 01:16:55;;;;;;;11.55;8.68;;;;;;;3.61;100.00;95508.59;6179171;23;20009;-64
2021/12/29 01:18:56;;;;;;;10.15;9.35;;;;;;;3.64;100.00;95508.38;6168406;23;20005;-64
2021/12/29 01:21:24;;;;;;;7.70;7.13;;;;;;;3.63;100.00;95519.72;6179344;23;20006;-64
2021/12/29 01:23:50;;;;;;;6.93;6.45;;;;;;;3.65;100.00;95529.13;6179571;23;20005;-64
2021/12/29 01:26:17;;;;;;;7.45;6.90;;;;;;;3.66;100.00;95522.97;6179309;23;20474;-65
2021/12/29 01:28:43;;;;;;;7.10;6.60;;;;;;;3.58;100.00;95525.22;6178702;23;20062;-64
2021/12/29 01:31:08;;;;;;;6.65;6.10;;;;;;;3.55;100.00;95531.50;6179241;23;20080;-65
2021/12/29 01:33:34;;;;;;;7.65;7.05;;;;;;;3.50;100.00;95540.53;6179192;23;20036;-65
2021/12/29 01:36:00;;;;;;;8.35;7.78;;;;;;;3.48;100.00;95534.63;6179105;23;20005;-63
2021/12/29 01:38:25;;;;;;;8.05;7.50;;;;;;;3.48;100.00;95532.00;6153139;22;20001;-63
2021/12/29 01:40:51;;;;;;;8.40;7.60;;;;;;;3.48;100.00;95534.63;6179157;22;20029;-63
2021/12/29 01:43:18;;;;;;;8.50;7.88;;;;;;;3.43;100.00;95519.28;6179229;23;20094;-63
2021/12/29 01:45:44;;;;;;;7.75;7.15;;;;;;;3.42;100.00;95515.03;6179097;23;20049;-66
2021/12/29 01:48:11;;;;;;;6.78;6.30;;;;;;;3.48;100.00;95522.41;6179168;23;20441;-64
2021/12/29 01:50:38;;;;;;;5.25;4.93;;;;;;;3.51;100.00;95526.59;6179213;23;20047;-64
2021/12/29 01:53:09;;;;;;;7.07;5.15;;;;;;;3.48;100.00;95525.00;6179303;23;20009;-63
2021/12/29 01:55:39;;;;;;;4.60;4.30;;;;;;;3.54;100.00;95544.59;6178857;23;20010;-64
2021/12/29 01:58:06;;;;;;;4.43;4.20;;;;;;;3.52;100.00;95562.91;6179388;23;20068;-64
2021/12/29 02:00:36;;;;;;;3.83;3.63;;;;;;;3.51;100.00;95555.22;6179143;23;20001;-64
2021/12/29 02:03:07;;;;;;;3.80;3.60;;;;;;;3.51;100.00;95550.84;6177770;23;20398;-64
2021/12/29 02:05:33;;;;;;;3.75;3.55;;;;;;;3.53;100.00;95543.75;6179083;23;20017;-66
2021/12/29 02:07:59;;;;;;;3.63;3.42;;;;;;;3.52;100.00;95536.88;6179288;23;20008;-64
2021/12/29 02:10:32;;;;;;;4.10;3.90;;;;;;;3.50;100.00;95519.72;6179091;23;20011;-64
2021/12/29 02:13:01;;;;;;;4.28;3.97;;;;;;;3.49;100.00;95518.06;6179216;23;20047;-64
2021/12/29 02:15:26;;;;;;;4.82;4.40;;;;;;;3.47;100.00;95535.53;6178753;23;20012;-64
2021/12/29 02:17:53;;;;;;;4.65;4.35;;;;;;;3.54;100.00;95542.84;6179429;23;20029;-64
2021/12/29 02:20:20;;;;;;;3.50;3.30;;;;;;;3.55;100.00;95556.69;6179152;23;20025;-63
2021/12/29 02:22:49;;;;;;;3.72;3.53;;;;;;;3.58;100.00;95561.69;6178940;23;20053;-64
2021/12/29 02:27:53;;;;;;;3.88;3.67;;;;;;;3.49;100.00;95575.31;6178848;23;20551;-64
2021/12/29 02:30:24;;;;;;;4.45;4.03;;;;;;;3.50;100.00;95558.75;6178926;22;20021;-64
2021/12/29 02:32:54;;;;;;;4.28;4.07;;;;;;;3.51;100.00;95550.03;6179140;23;20005;-64
2021/12/29 02:35:20;;;;;;;4.45;4.15;;;;;;;3.53;100.00;95554.16;6178430;23;20100;-64
2021/12/29 02:37:46;;;;;;;4.53;3.85;;;;;;;3.56;100.00;95558.34;6178464;23;20011;-64
2021/12/29 02:40:12;;;;;;;4.28;3.63;;;;;;;3.61;100.00;95553.66;6178744;23;20506;-65
2021/12/29 02:42:41;;;;;;;4.00;3.80;;;;;;;3.64;100.00;95548.25;6178105;23;20036;-64
2021/12/29 02:45:09;;;;;;;4.20;3.90;;;;;;;3.64;100.00;95548.25;6179260;23;20062;-64
2021/12/29 02:47:35;;;;;;;3.65;3.45;;;;;;;3.73;100.00;95544.19;6178158;23;20012;-64
2021/12/29 02:50:01;;;;;;;3.42;3.22;;;;;;;3.70;100.00;95537.44;6178941;23;20080;-64
2021/12/29 02:52:26;;;;;;;4.10;3.90;;;;;;;3.72;100.00;95527.75;6178897;23;20009;-63
2021/12/29 02:54:52;;;;;;;5.47;5.03;;;;;;;3.72;100.00;95535.56;6178993;23;20006;-64
2021/12/29 02:57:19;;;;;;;4.72;4.32;;;;;;;3.67;100.00;95553.28;6178828;23;20452;-63
2021/12/29 02:59:50;;;;;;;6.30;5.82;;;;;;;3.72;100.00;95552.94;6178841;23;20013;-64
2021/12/29 03:02:20;;;;;;;6.38;5.88;;;;;;;3.69;100.00;95520.16;6179362;22;20001;-66
2021/12/29 03:04:50;;;;;;;6.10;5.65;;;;;;;3.66;100.00;95503.91;6178667;23;20013;-64
2021/12/29 03:07:16;;;;;;;8.23;6.10;;;;;;;3.72;100.00;95501.72;6178712;23;20013;-64
2021/12/29 03:09:42;;;;;;;6.25;5.85;;;;;;;3.64;100.00;95490.97;6178592;23;20008;-64
2021/12/29 03:12:08;;;;;;;4.82;4.43;;;;;;;3.66;100.00;95488.28;6178941;23;20005;-64
2021/12/29 03:14:37;;;;;;;5.25;4.85;;;;;;;3.71;100.00;95494.00;6178775;23;20027;-63
2021/12/29 03:17:02;;;;;;;5.97;5.57;;;;;;;3.83;100.00;95503.59;6179062;23;20459;-63
2021/12/29 03:19:28;;;;;;;5.75;5.35;;;;;;;3.80;100.00;95511.63;6178662;23;20001;-64
2021/12/29 03:21:54;;;;;;;8.52;7.60;;;;;;;3.80;100.00;95527.25;6178772;23;20032;-64
2021/12/29 03:24:21;;;;;;;6.13;5.35;;;;;;;3.92;100.00;95503.88;6178775;23;20001;-64
2021/12/29 03:26:46;;;;;;;6.97;5.80;;;;;;;3.91;100.00;95497.84;6178352;23;20009;-64
2021/12/29 03:29:12;;;;;;;7.03;6.43;;;;;;;3.94;100.00;95509.81;6178438;23;20055;-64
2021/12/29 03:31:41;;;;;;;9.27;7.15;;;;;;;3.94;100.00;95538.47;6178585;23;20472;-64
2021/12/29 03:34:10;;;;;;;5.55;5.15;;;;;;;4.00;100.00;95514.63;6178700;23;20005;-63
2021/12/29 03:36:36;;;;;;;7.30;6.55;;;;;;;3.98;100.00;95538.16;6178725;23;20005;-63
2021/12/29 03:39:02;;;;;;;4.05;3.60;;;;;;;4.00;100.00;95522.44;6178559;23;20012;-63
2021/12/29 03:41:28;;;;;;;3.13;2.92;;;;;;;4.15;100.00;95541.38;6178578;23;20373;-64
2021/12/29 03:43:54;;;;;;;4.38;4.00;;;;;;;4.27;100.00;95547.53;6178513;23;20063;-64
2021/12/29 03:46:19;;;;;;;4.15;3.85;;;;;;;4.33;100.00;95556.69;6178701;22;20005;-63
2021/12/29 03:48:54;;;;;;;3.80;3.50;;;;;;;4.35;100.00;95570.44;6178362;23;20087;-64
2021/12/29 03:51:19;;;;;;;6.22;5.82;;;;;;;4.26;100.00;95554.50;6178527;23;20520;-64
2021/12/29 03:53:45;;;;;;;8.20;7.63;;;;;;;4.28;100.00;95570.84;6178519;23;20024;-64
2021/12/29 03:56:11;;;;;;;9.70;8.80;;;;;;;4.04;100.00;95567.34;6178403;23;20009;-64
2021/12/29 03:58:37;;;;;;;10.77;9.88;;;;;;;3.86;100.00;95541.59;6178697;23;20001;-63
2021/12/29 04:01:06;;;;;;;11.48;10.57;;;;;;;3.77;100.00;95544.84;6178341;23;20006;-66
2021/12/29 04:03:31;;;;;;;10.77;9.95;;;;;;;3.79;100.00;95535.13;6178415;23;20472;-64
2021/12/29 04:05:57;;;;;;;10.93;10.05;;;;;;;3.81;100.00;95528.91;6178454;23;20013;-64
2021/12/29 04:08:22;;;;;;;10.48;9.68;;;;;;;3.77;100.00;95555.25;6178336;23;20001;-63
2021/12/29 04:10:48;;;;;;;9.00;8.25;;;;;;;3.72;100.00;95563.38;6178296;23;20001;-63
2021/12/29 04:13:14;;;;;;;10.30;9.52;;;;;;;3.69;100.00;95559.22;6178379;23;20080;-64
2021/12/29 04:15:39;;;;;;;10.73;9.80;;;;;;;3.66;100.00;95559.41;6178150;23;20009;-63
2021/12/29 04:18:15;;;;;;;11.43;10.43;;;;;;;3.76;100.00;95548.38;6178264;23;20009;-64
2021/12/29 04:20:54;;;;;;;13.13;12.07;;;;;;;3.69;100.00;95554.00;6178519;23;20392;-63
2021/12/29 04:23:21;;;;;;;13.18;12.18;;;;;;;3.65;100.00;95562.13;6178524;23;20092;-63
2021/12/29 04:25:51;;;;;;;10.52;9.63;;;;;;;3.64;100.00;95570.88;6177981;23;20001;-63
2021/12/29 04:28:20;;;;;;;12.27;11.27;;;;;;;3.64;100.00;95579.50;6178320;23;20076;-64
2021/12/29 04:30:48;;;;;;;11.63;10.73;;;;;;;3.62;100.00;95586.56;6178236;23;20001;-63
2021/12/29 04:33:14;;;;;;;10.65;9.75;;;;;;;3.61;100.00;95576.28;6177671;23;20005;-63
2021/12/29 04:35:40;;;;;;;11.48;10.57;;;;;;;3.60;100.00;95595.44;6178096;23;20009;-64
2021/12/29 04:38:06;;;;;;;10.02;9.32;;;;;;;3.56;100.00;95584.38;6178813;23;20005;-63
2021/12/29 04:40:31;;;;;;;9.68;8.95;;;;;;;3.54;100.00;95587.09;6179859;23;20055;-64
2021/12/29 04:42:57;;;;;;;9.15;8.45;;;;;;;3.60;100.00;95582.41;6179200;23;20463;-63
2021/12/29 04:45:22;;;;;;;9.00;8.20;;;;;;;3.73;100.00;95568.47;6179874;23;20012;-63
2021/12/29 04:47:49;;;;;;;8.93;8.27;;;;;;;3.77;100.00;95547.44;6179688;23;19997;-63
2021/12/29 04:50:24;;;;;;;10.10;9.18;;;;;;;3.62;100.00;95552.72;6180101;23;20009;-63
2021/12/29 04:52:52;;;;;;;9.95;9.25;;;;;;;3.56;100.00;95558.34;6179776;23;20353;-63
2021/12/29 04:55:17;;;;;;;7.68;7.18;;;;;;;3.56;100.00;95566.16;6179739;23;20090;-63
2021/12/29 04:57:43;;;;;;;8.95;8.23;;;;;;;3.95;100.00;95582.66;6153434;23;20021;-63
2021/12/29 05:00:09;;;;;;;10.55;9.75;;;;;;;3.77;100.00;95561.31;6179998;22;20037;-63
2021/12/29 05:02:34;;;;;;;11.85;10.93;;;;;;;3.71;100.00;95535.66;6179653;23;20009;-63
2021/12/29 05:05:08;;;;;;;12.05;11.15;;;;;;;3.66;100.00;95562.03;6179495;23;20349;-63
2021/12/29 05:10:17;;;;;;;16.20;14.70;;;;;;;3.66;100.00;95575.03;6179914;23;20498;-63
2021/12/29 05:12:42;;;;;;;12.80;11.75;;;;;;;3.63;100.00;95580.44;6179614;23;20005;-63
2021/12/29 05:15:08;;;;;;;12.43;11.25;;;;;;;3.69;100.00;95608.69;6179681;23;20338;-63
2021/12/29 05:17:33;;;;;;;11.70;10.23;;;;;;;3.71;100.00;95585.13;6179580;23;20065;-63
2021/12/29 05:19:58;;;;;;;8.05;7.45;;;;;;;3.71;100.00;95585.97;6179689;23;20001;-63
2021/12/29 05:22:24;;;;;;;8.60;8.00;;;;;;;3.78;100.00;95609.00;6179269;23;20431;-64
2021/12/29 05:24:49;;;;;;;8.48;7.78;;;;;;;3.77;100.00;95591.72;6179654;23;20017;-63
2021/12/29 05:27:15;;;;;;;8.25;7.65;;;;;;;3.85;100.00;95589.41;6179712;23;20072;-63
2021/12/29 05:29:40;;;;;;;7.97;7.38;;;;;;;3.94;100.00;95630.50;6179314;23;20013;-63
2021/12/29 05:32:06;;;;;;;9.13;8.43;;;;;;;3.80;100.00;95591.50;6179768;23;20032;-63
2021/12/29 05:34:32;;;;;;;8.63;7.97;;;;;;;3.89;100.00;95588.28;6179649;23;20027;-63
2021/12/29 05:36:58;;;;;;;9.32;8.63;;;;;;;3.77;100.00;95602.13;6179543;23;20440;-63
2021/12/29 05:39:23;;;;;;;9.45;8.75;;;;;;;3.71;100.00;95599.00;6179477;23;20079;-63
2021/12/29 05:41:48;;;;;;;8.77;8.07;;;;;;;3.80;100.00;95607.13;6179569;23;20005;-63
2021/12/29 05:44:14;;;;;;;6.75;6.35;;;;;;;3.81;100.00;95601.81;6179757;23;20005;-63
2021/12/29 05:46:40;;;;;;;7.13;6.63;;;;;;;3.75;100.00;95614.41;6179430;23;20080;-63
2021/12/29 05:49:06;;;;;;;8.63;7.93;;;;;;;3.70;100.00;95625.97;6179676;23;20036;-63
2021/12/29 05:51:31;;;;;;;8.85;8.15;;;;;;;3.63;100.00;95610.84;6178871;23;20357;-63
2021/12/29 05:53:56;;;;;;;8.02;7.43;;;;;;;3.57;100.00;95620.75;6179599;23;20057;-63
2021/12/29 05:56:22;;;;;;;10.00;9.20;;;;;;;3.62;100.00;95635.22;6179456;23;20421;-63
2021/12/29 05:58:47;;;;;;;7.85;7.35;;;;;;;3.65;100.00;95625.44;6179369;23;20054;-63
2021/12/29 06:01:13;;;;;;;7.18;6.75;;;;;;;3.59;100.00;95618.03;6179644;23;20005;-63
2021/12/29 06:03:39;;;;;;;7.32;6.82;;;;;;;3.57;100.00;95622.50;6180029;22;20080;-63
2021/12/29 06:06:05;;;;;;;6.68;6.25;;;;;;;3.66;100.00;95631.47;6289745;22;20015;-63
2021/12/29 06:08:31;;;;;;;7.65;6.95;;;;;;;3.94;100.00;95630.50;6305885;22;20007;-63
2021/12/29 06:10:57;;;;;;;10.85;9.85;;;;;;;3.71;100.00;95642.41;6306000;22;20014;-63
2021/12/29 06:13:22;;;;;;;9.88;8.98;;;;;;;3.63;100.00;95629.91;6306125;22;20003;-63
2021/12/29 06:15:48;;;;;;;9.15;8.45;;;;;;;3.64;100.00;95641.97;6305800;22;20031;-63
2021/12/29 06:18:13;;;;;;;10.32;9.27;;;;;;;3.62;100.00;95636.03;6306024;22;20482;-63
2021/12/29 06:20:39;;;;;;;13.52;12.43;;;;;;;3.61;100.00;95639.59;6304831;22;20006;-63
2021/12/29 06:23:07;;;;;;;13.82;12.52;;;;;;;3.63;100.00;95642.91;6305353;22;20031;-63
2021/12/29 06:25:33;;;;;;;10.18;9.30;;;;;;;3.60;100.00;95642.31;6305861;22;20014;-63
2021/12/29 06:27:58;;;;;;;11.38;10.40;;;;;;;3.60;100.00;95650.13;6305685;22;20032;-63
2021/12/29 06:30:24;;;;;;;12.63;11.52;;;;;;;3.60;100.00;95650.94;6303674;22;20855;-63
2021/12/29 06:32:50;;;;;;;11.75;10.65;;;;;;;3.60;100.00;95648.31;6305639;22;20458;-63
2021/12/29 06:35:16;;;;;;;12.07;11.07;;;;;;;3.64;100.00;95639.38;6305804;22;20000;-63
2021/12/29 06:37:43;;;;;;;11.32;10.43;;;;;;;3.63;100.00;95642.91;6305722;22;20442;-63
2021/12/29 06:40:09;;;;;;;13.30;12.23;;;;;;;3.63;100.00;95634.28;6305860;22;20117;-63
2021/12/29 06:42:35;;;;;;;12.88;11.88;;;;;;;3.63;100.00;95637.72;6305243;22;20003;-63
2021/12/29 06:45:00;;;;;;;11.40;10.40;;;;;;;3.65;100.00;95642.81;6305368;22;20029;-63
2021/12/29 06:47:27;;;;;;;13.80;12.60;;;;;;;3.64;100.00;95639.38;6305579;22;20439;-63
2021/12/29 06:49:53;;;;;;;13.95;12.65;;;;;;;3.61;100.00;95634.38;6305581;22;20003;-63
2021/12/29 06:52:18;;;;;;;12.68;11.65;;;;;;;3.63;100.00;95642.91;6305582;22;20003;-63
2021/12/29 06:54:46;;;;;;;14.30;12.88;;;;;;;3.64;100.00;95643.75;6305336;22;20014;-63
2021/12/29 06:57:11;;;;;;;12.70;11.70;;;;;;;3.61;100.00;95647.38;6305567;22;20031;-63
2021/12/29 06:59:37;;;;;;;11.93;10.80;;;;;;;3.62;100.00;95643.84;6305452;22;20004;-63
2021/12/29 07:02:02;;;;;;;13.43;12.25;;;;;;;3.63;100.00;95642.91;6305452;22;19999;-63
2021/12/29 07:04:28;;;;;;;14.35;12.95;;;;;;;3.63;100.00;95648.13;6273759;22;20017;-63
2021/12/29 07:06:54;;;;;;;15.52;13.98;;;;;;;3.64;100.00;95654.19;6179187;23;20020;-63
2021/12/29 07:09:20;;;;;;;15.20;13.82;;;;;;;3.65;100.00;95661.06;6179153;23;20001;-63
2021/12/29 07:11:46;;;;;;;17.13;15.50;;;;;;;3.62;100.00;95662.06;6179120;23;20456;-63
2021/12/29 07:14:12;;;;;;;16.92;15.32;;;;;;;3.67;100.00;95674.81;6179306;23;20034;-63
2021/12/29 07:16:39;;;;;;;21.25;19.35;;;;;;;3.68;100.00;95676.47;6179044;23;20329;-63
2021/12/29 07:19:05;;;;;;;20.40;18.48;;;;;;;3.69;100.00;95679.00;6179054;23;20009;-63
2021/12/29 07:21:31;;;;;;;20.45;18.65;;;;;;;3.74;100.00;95686.47;6179063;23;20005;-63
2021/12/29 07:23:57;;;;;;;18.02;16.33;;;;;;;3.75;100.00;95700.34;6179426;23;20349;-63
2021/12/29 07:26:23;;;;;;;23.00;15.70;;;;;;;3.72;100.00;95685.75;6179127;23;20005;-63
2021/12/29 07:28:49;;;;;;;20.15;15.20;;;;;;;3.81;100.00;95689.53;6178454;23;20005;-63
2021/12/29 07:31:15;;;;;;;17.60;15.98;;;;;;;3.80;100.00;95700.88;6179262;23;20005;-63
2021/12/29 07:33:41;;;;;;;15.35;13.65;;;;;;;3.78;100.00;95707.97;6178976;23;20001;-63
2021/12/29 07:36:06;;;;;;;14.77;13.52;;;;;;;3.79;100.00;95717.44;6178307;23;20066;-63
2021/12/29 07:38:32;;;;;;;14.73;13.43;;;;;;;3.78;100.00;95708.81;6178791;23;20005;-64
2021/12/29 07:40:58;;;;;;;14.13;12.90;;;;;;;3.82;100.00;95704.22;6178626;23;20080;-62
2021/12/29 07:43:23;;;;;;;13.98;12.88;;;;;;;3.78;100.00;95706.22;6178680;23;20058;-63
2021/12/29 07:45:50;;;;;;;14.38;13.18;;;;;;;3.78;100.00;95698.38;6178766;23;20017;-64
2021/12/29 07:48:17;;;;;;;13.40;12.20;;;;;;;3.77;100.00;95691.50;6178425;23;20012;-64
2021/12/29 07:50:42;;;;;;;12.93;11.82;;;;;;;3.79;100.00;95705.28;6178452;23;20001;-64
2021/12/29 07:53:08;;;;;;;12.43;11.38;;;;;;;3.87;100.00;95702.16;6177871;23;20012;-64
2021/12/29 07:55:33;;;;;;;9.43;8.70;;;;;;;3.91;100.00;95708.84;6177914;23;20379;-66
2021/12/29 07:57:59;;;;;;;10.20;9.40;;;;;;;3.91;100.00;95719.25;6177814;23;20032;-68
2021/12/29 08:00:25;;;;;;;11.18;10.27;;;;;;;3.90;100.00;95714.13;6178084;23;20009;-67
2021/12/29 08:02:52;;;;;;;12.73;11.70;;;;;;;3.90;100.00;95715.00;6177613;23;20000;-66
2021/12/29 08:05:17;;;;;;;16.38;14.93;;;;;;;3.91;100.00;95715.81;6178055;23;20021;-66
2021/12/29 08:07:42;;;;;;;11.82;10.93;;;;;;;3.99;100.00;95724.78;6178042;23;20069;-69
2021/12/29 08:10:08;;;;;;;17.85;16.42;;;;;;;4.04;100.00;95724.50;6176067;23;20367;-67
2021/12/29 08:12:34;;;;;;;15.15;13.85;;;;;;;4.04;100.00;95726.25;6177905;23;20009;-66
2021/12/29 08:14:59;;;;;;;16.90;15.60;;;;;;;4.05;100.00;95723.56;6178825;23;20011;-64
2021/12/29 08:17:25;;;;;;;16.98;15.45;;;;;;;4.06;100.00;95721.78;6179782;23;20036;-65
2021/12/29 08:19:50;;;;;;;24.05;21.85;;;;;;;4.06;100.00;95727.00;6179302;23;20001;-64
2021/12/29 08:22:17;;;;;;;27.00;24.27;;;;;;;4.03;100.00;95715.00;6175946;23;20688;-65
2021/12/29 08:24:43;;;;;;;28.17;25.35;;;;;;;4.06;100.00;95719.16;6179749;23;20001;-65
2021/12/29 08:27:10;;;;;;;28.58;25.67;;;;;;;4.07;100.00;95721.69;6176386;23;20012;-64
2021/12/29 08:29:36;;;;;;;25.30;22.65;;;;;;;4.10;100.00;95716.28;6179706;23;20005;-60
2021/12/29 08:32:02;;;;;;;23.95;21.73;;;;;;;4.19;100.00;95720.03;6180043;22;20521;-61
2021/12/29 08:34:28;;;;;;;18.77;17.02;;;;;;;4.18;100.00;95720.13;6180094;23;20039;-62
2021/12/29 08:36:53;;;;;;;10.98;10.07;;;;;;;4.15;100.00;95727.22;6179758;23;20077;-62
2021/12/29 08:39:20;;;;;;;9.30;8.60;;;;;;;4.15;100.00;95716.78;6179854;23;20001;-61
2021/12/29 08:41:47;;;;;;;9.05;8.35;;;;;;;4.29;100.00;95722.88;6179729;23;20012;-61
2021/12/29 08:44:13;;;;;;;10.27;9.38;;;;;;;4.31;100.00;95734.03;6177599;23;20058;-63
2021/12/29 08:46:40;;;;;;;15.20;13.90;;;;;;;4.25;100.00;95745.69;6179679;23;20001;-62
2021/12/29 08:49:05;;;;;;;12.18;11.10;;;;;;;4.16;100.00;95743.69;6179477;23;20078;-62
2021/12/29 08:51:31;;;;;;;14.88;13.30;;;;;;;4.16;100.00;95748.91;6177497;23;20433;-61
2021/12/29 08:53:57;;;;;;;16.52;14.75;;;;;;;4.17;100.00;95745.38;6179574;23;20024;-60
2021/12/29 08:56:23;;;;;;;15.93;14.32;;;;;;;4.25;100.00;95743.09;6179567;23;20080;-60
2021/12/29 08:58:50;;;;;;;17.23;15.55;;;;;;;4.23;100.00;95749.34;6179160;23;20489;-61
2021/12/29 09:01:17;;;;;;;20.77;18.67;;;;;;;4.18;100.00;95748.78;6178344;23;20005;-62
2021/12/29 09:03:42;;;;;;;20.60;18.67;;;;;;;4.21;100.00;95740.81;6179637;23;20005;-61
2021/12/29 09:06:08;;;;;;;24.08;19.58;;;;;;;4.18;100.00;95744.44;6179625;23;20103;-61
2021/12/29 09:08:34;;;;;;;17.63;15.93;;;;;;;4.19;100.00;95746.09;6179782;23;20009;-61
2021/12/29 09:10:59;;;;;;;22.80;20.55;;;;;;;4.20;100.00;95739.94;6178937;23;20005;-60
2021/12/29 09:13:25;;;;;;;19.58;17.50;;;;;;;4.21;100.00;95744.22;6179402;23;20032;-61
2021/12/29 09:15:53;;;;;;;20.33;18.20;;;;;;;4.21;100.00;95746.00;6176036;23;20031;-60
2021/12/29 09:18:19;;;;;;;20.33;18.30;;;;;;;4.19;100.00;95747.84;6179316;23;20383;-60
2021/12/29 09:20:46;;;;;;;22.10;17.90;;;;;;;4.22;100.00;95748.50;6179449;23;20008;-60
2021/12/29 09:23:14;;;;;;;21.55;19.35;;;;;;;4.23;100.00;95739.75;6177852;23;20017;-61
2021/12/29 09:25:41;;;;;;;26.08;23.00;;;;;;;4.26;100.00;95743.94;6175608;23;20045;-62
2021/12/29 09:28:08;;;;;;;22.50;20.17;;;;;;;4.24;100.00;95745.81;6178952;23;20051;-61
2021/12/29 09:30:35;;;;;;;20.58;18.58;;;;;;;4.26;100.00;95754.34;6179230;23;20542;-59
2021/12/29 09:33:05;;;;;;;22.05;19.70;;;;;;;4.26;100.00;95751.75;6177860;23;20005;-60
2021/12/29 09:35:31;;;;;;;22.27;19.40;;;;;;;4.27;100.00;95756.84;6178189;23;20012;-61
2021/12/29 09:37:57;;;;;;;25.63;23.02;;;;;;;4.35;100.00;95742.50;6177443;23;20015;-61
2021/12/29 09:40:23;;;;;;;34.00;30.38;;;;;;;4.37;100.00;95751.03;6178260;23;20005;-60
2021/12/29 09:42:51;;;;;;;34.78;31.13;;;;;;;4.38;100.00;95744.88;6179002;23;20373;-61
2021/12/29 09:45:17;;;;;;;97.35;55.38;;;;;;;4.43;100.00;95743.66;6177412;23;20437;-60
2021/12/29 09:47:42;;;;;;;31.40;27.08;;;;;;;4.40;100.00;95733.41;6177843;23;20080;-60
2021/12/29 09:50:11;;;;;;;37.65;29.40;;;;;;;4.41;100.00;95726.44;6178872;23;20001;-60
2021/12/29 09:52:38;;;;;;;37.22;28.80;;;;;;;4.40;100.00;95724.75;6178839;23;20076;-60
2021/12/29 09:55:06;;;;;;;41.17;28.33;;;;;;;4.41;100.00;95721.22;6176398;23;20001;-59
2021/12/29 09:57:33;;;;;;;37.50;27.58;;;;;;;4.43;100.00;95728.00;6178954;23;20005;-60
2021/12/29 09:59:59;;;;;;;30.17;23.77;;;;;;;4.62;100.00;95724.13;6179507;23;20008;-61
2021/12/29 10:02:24;;;;;;;26.92;23.35;;;;;;;4.57;100.00;95721.84;6179005;23;20005;-60
2021/12/29 10:04:50;;;;;;;33.55;29.90;;;;;;;4.58;100.00;95715.69;6139848;23;20024;-60
2021/12/29 10:07:18;;;;;;;34.80;31.05;;;;;;;4.59;100.00;95714.75;6148702;23;20033;-61
2021/12/29 10:09:44;;;;;;;32.65;28.70;;;;;;;4.61;100.00;95706.00;6149211;23;20002;-60
2021/12/29 10:12:17;;;;;;;29.48;26.40;;;;;;;4.64;100.00;95700.56;6149583;23;20342;-60
2021/12/29 10:14:51;;;;;;;30.55;27.50;;;;;;;4.66;100.00;95712.56;6149245;23;20012;-61
2021/12/29 10:17:18;;;;;;;31.70;28.40;;;;;;;4.72;100.00;95713.91;6146913;23;20014;-61
2021/12/29 10:19:44;;;;;;;38.22;34.15;;;;;;;4.76;100.00;95710.16;6147992;23;20006;-60
2021/12/29 10:22:22;;;;;;;28.98;26.05;;;;;;;4.77;100.00;95709.22;6148477;23;20010;-62
2021/12/29 10:25:00;;;;;;;15.82;14.23;;;;;;;4.93;100.00;95723.81;6148842;23;20012;-60
2021/12/29 10:27:30;;;;;;;15.35;13.95;;;;;;;4.83;100.00;95713.16;6147598;23;20006;-60
2021/12/29 10:29:55;;;;;;;14.88;13.52;;;;;;;4.76;100.00;95720.59;6148143;23;20002;-60
2021/12/29 10:32:24;;;;;;;12.38;11.38;;;;;;;4.85;100.00;95722.56;6149137;23;20005;-61
2021/12/29 10:34:52;;;;;;;12.43;11.23;;;;;;;4.88;100.00;95727.56;6149191;23;20344;-60
2021/12/29 10:37:20;;;;;;;10.40;9.50;;;;;;;4.81;100.00;95734.16;6148763;23;20013;-60
2021/12/29 10:39:48;;;;;;;11.25;10.25;;;;;;;4.94;100.00;95734.16;6149057;23;20002;-59
2021/12/29 10:42:20;;;;;;;12.05;11.05;;;;;;;4.81;100.00;95722.88;6148228;23;20012;-60
2021/12/29 10:44:50;;;;;;;11.23;10.23;;;;;;;4.73;100.00;95724.25;6148571;23;20073;-60
2021/12/29 10:47:17;;;;;;;12.75;11.75;;;;;;;4.82;100.00;95716.72;6148867;23;20384;-59
2021/12/29 10:49:54;;;;;;;13.20;12.13;;;;;;;4.81;100.00;95730.69;6122703;23;20460;-60
2021/12/29 10:52:48;;;;;;;18.17;16.63;;;;;;;4.73;100.00;95749.47;6148480;23;20449;-60
2021/12/29 10:55:25;;;;;;;12.65;11.68;;;;;;;4.67;100.00;95768.16;6148603;23;20008;-61
2021/12/29 10:58:10;;;;;;;11.60;10.50;;;;;;;4.67;100.00;95776.84;6149247;23;20009;-60
2021/12/29 11:00:38;;;;;;;8.25;7.65;;;;;;;4.76;100.00;95772.78;6148976;23;20448;-61
2021/12/29 11:03:23;;;;;;;8.65;8.05;;;;;;;4.76;100.00;95771.91;6148397;23;20009;-60
2021/12/29 11:05:58;;;;;;;9.40;8.60;;;;;;;4.78;100.00;95760.47;6171820;23;20021;-63
2021/12/29 11:08:24;;;;;;;10.88;9.98;;;;;;;4.77;100.00;95756.19;6178632;23;20005;-61
2021/12/29 11:10:53;;;;;;;12.75;10.25;;;;;;;4.72;100.00;95751.28;6178408;23;20138;-61
2021/12/29 11:13:27;;;;;;;12.45;11.32;;;;;;;4.73;100.00;95744.25;6178426;23;20005;-60
2021/12/29 11:15:54;;;;;;;12.50;11.35;;;;;;;4.76;100.00;95740.63;6178356;23;20050;-60
2021/12/29 11:18:20;;;;;;;12.68;11.55;;;;;;;4.73;100.00;95728.63;6178200;23;20005;-60
2021/12/29 11:20:45;;;;;;;6.40;5.90;;;;;;;4.73;100.00;95726.84;6178074;23;20036;-60
2021/12/29 11:23:14;;;;;;;5.55;5.05;;;;;;;4.72;100.00;95722.56;6178256;23;20378;-60
2021/12/29 11:25:41;;;;;;;5.90;5.40;;;;;;;4.76;100.00;95706.72;6178734;23;20012;-59
2021/12/29 11:28:18;;;;;;;8.02;6.50;;;;;;;4.78;100.00;95700.47;6178731;23;20005;-60